sensor_id;sensor_type;location;lat;lon;timestamp;temperature;humidity
77052;SHT30;65980;44.898;8.602;2023-03-21T00:00:00;8.55;78.33
77052;SHT30;65980;44.898;8.602;2023-03-21T00:03:04;8.46;79.23
77052;SHT30;65980;44.898;8.602;2023-03-21T00:06:10;8.28;80.10
77052;SHT30;65980;44.898;8.602;2023-03-21T00:09:14;8.13;81.38
77052;SHT30;65980;44.898;8.602;2023-03-21T00:12:18;8.24;80.00
77052;SHT30;65980;44.898;8.602;2023-03-21T00:15:24;8.13;80.54
77052;SHT30;65980;44.898;8.602;2023-03-21T00:18:34;8.08;81.12
77052;SHT30;65980;44.898;8.602;2023-03-21T00:21:44;8.42;79.79
77052;SHT30;65980;44.898;8.602;2023-03-21T00:24:49;8.05;80.35
77052;SHT30;65980;44.898;8.602;2023-03-21T00:27:54;8.14;80.46
77052;SHT30;65980;44.898;8.602;2023-03-21T00:30:59;7.80;81.83
77052;SHT30;65980;44.898;8.602;2023-03-21T00:34:03;7.62;83.01
77052;SHT30;65980;44.898;8.602;2023-03-21T00:37:11;7.66;84.28
77052;SHT30;65980;44.898;8.602;2023-03-21T00:40:19;7.91;82.57
77052;SHT30;65980;44.898;8.602;2023-03-21T00:43:23;8.00;81.58
77052;SHT30;65980;44.898;8.602;2023-03-21T00:46:33;8.22;80.07
77052;SHT30;65980;44.898;8.602;2023-03-21T00:49:38;7.96;81.16
77052;SHT30;65980;44.898;8.602;2023-03-21T00:52:45;8.00;80.81
77052;SHT30;65980;44.898;8.602;2023-03-21T00:55:49;7.73;83.10
77052;SHT30;65980;44.898;8.602;2023-03-21T00:58:53;7.56;83.52
77052;SHT30;65980;44.898;8.602;2023-03-21T01:01:57;7.58;83.73
77052;SHT30;65980;44.898;8.602;2023-03-21T01:05:03;7.42;83.83
77052;SHT30;65980;44.898;8.602;2023-03-21T01:08:10;7.32;84.36
77052;SHT30;65980;44.898;8.602;2023-03-21T01:11:16;7.34;84.57
77052;SHT30;65980;44.898;8.602;2023-03-21T01:14:21;7.27;84.37
77052;SHT30;65980;44.898;8.602;2023-03-21T01:17:26;7.28;84.46
77052;SHT30;65980;44.898;8.602;2023-03-21T01:20:30;7.24;84.66
77052;SHT30;65980;44.898;8.602;2023-03-21T01:23:34;7.15;84.87
77052;SHT30;65980;44.898;8.602;2023-03-21T01:26:39;7.21;84.83
77052;SHT30;65980;44.898;8.602;2023-03-21T01:29:43;7.21;84.71
77052;SHT30;65980;44.898;8.602;2023-03-21T01:32:49;7.35;84.07
77052;SHT30;65980;44.898;8.602;2023-03-21T01:35:53;7.54;83.05
77052;SHT30;65980;44.898;8.602;2023-03-21T01:38:57;7.56;83.22
77052;SHT30;65980;44.898;8.602;2023-03-21T01:42:01;7.51;83.79
77052;SHT30;65980;44.898;8.602;2023-03-21T01:45:57;7.58;83.17
77052;SHT30;65980;44.898;8.602;2023-03-21T01:48:31;7.62;79.76
77052;SHT30;65980;44.898;8.602;2023-03-21T01:51:38;7.59;79.45
77052;SHT30;65980;44.898;8.602;2023-03-21T01:54:44;7.42;83.17
77052;SHT30;65980;44.898;8.602;2023-03-21T01:57:52;7.48;81.82
77052;SHT30;65980;44.898;8.602;2023-03-21T02:00:58;7.34;80.05
77052;SHT30;65980;44.898;8.602;2023-03-21T02:04:16;7.32;82.79
77052;SHT30;65980;44.898;8.602;2023-03-21T02:07:37;7.21;83.43
77052;SHT30;65980;44.898;8.602;2023-03-21T02:10:45;7.22;82.31
77052;SHT30;65980;44.898;8.602;2023-03-21T02:13:57;7.22;81.98
77052;SHT30;65980;44.898;8.602;2023-03-21T02:17:13;7.32;80.94
77052;SHT30;65980;44.898;8.602;2023-03-21T02:20:26;7.10;79.56
77052;SHT30;65980;44.898;8.602;2023-03-21T02:27:14;7.38;79.13
77052;SHT30;65980;44.898;8.602;2023-03-21T02:40:09;7.03;79.56
77052;SHT30;65980;44.898;8.602;2023-03-21T02:49:41;6.41;82.22
77052;SHT30;65980;44.898;8.602;2023-03-21T02:52:49;6.55;82.30
77052;SHT30;65980;44.898;8.602;2023-03-21T02:56:01;6.82;81.53
77052;SHT30;65980;44.898;8.602;2023-03-21T02:59:11;6.73;80.63
77052;SHT30;65980;44.898;8.602;2023-03-21T03:02:16;6.44;82.21
77052;SHT30;65980;44.898;8.602;2023-03-21T03:05:25;6.24;83.40
77052;SHT30;65980;44.898;8.602;2023-03-21T03:12:00;6.37;82.23
77052;SHT30;65980;44.898;8.602;2023-03-21T03:18:25;6.37;82.31
77052;SHT30;65980;44.898;8.602;2023-03-21T03:21:32;6.64;81.69
77052;SHT30;65980;44.898;8.602;2023-03-21T03:24:44;6.35;82.17
77052;SHT30;65980;44.898;8.602;2023-03-21T03:27:50;6.52;82.24
77052;SHT30;65980;44.898;8.602;2023-03-21T03:30:57;6.34;83.59
77052;SHT30;65980;44.898;8.602;2023-03-21T03:34:11;6.55;82.55
77052;SHT30;65980;44.898;8.602;2023-03-21T03:37:20;6.82;80.60
77052;SHT30;65980;44.898;8.602;2023-03-21T03:40:31;6.90;81.02
77052;SHT30;65980;44.898;8.602;2023-03-21T03:43:58;7.01;80.62
77052;SHT30;65980;44.898;8.602;2023-03-21T03:47:08;7.03;79.93
77052;SHT30;65980;44.898;8.602;2023-03-21T03:50:20;7.01;80.16
77052;SHT30;65980;44.898;8.602;2023-03-21T03:56:35;7.21;78.09
77052;SHT30;65980;44.898;8.602;2023-03-21T03:59:41;7.20;77.92
77052;SHT30;65980;44.898;8.602;2023-03-21T04:03:00;7.05;77.94
77052;SHT30;65980;44.898;8.602;2023-03-21T04:06:05;7.03;78.01
77052;SHT30;65980;44.898;8.602;2023-03-21T04:09:11;6.71;79.11
77052;SHT30;65980;44.898;8.602;2023-03-21T04:12:18;6.17;83.04
77052;SHT30;65980;44.898;8.602;2023-03-21T04:15:42;6.38;81.93
77052;SHT30;65980;44.898;8.602;2023-03-21T04:18:52;6.35;81.77
77052;SHT30;65980;44.898;8.602;2023-03-21T04:21:57;6.49;80.12
77052;SHT30;65980;44.898;8.602;2023-03-21T04:25:01;6.31;80.56
77052;SHT30;65980;44.898;8.602;2023-03-21T04:28:07;6.09;81.75
77052;SHT30;65980;44.898;8.602;2023-03-21T04:31:17;6.32;81.92
77052;SHT30;65980;44.898;8.602;2023-03-21T04:34:25;6.53;81.35
77052;SHT30;65980;44.898;8.602;2023-03-21T04:37:34;6.75;80.82
77052;SHT30;65980;44.898;8.602;2023-03-21T04:40:39;6.58;80.06
77052;SHT30;65980;44.898;8.602;2023-03-21T04:43:44;6.45;79.99
77052;SHT30;65980;44.898;8.602;2023-03-21T04:46:51;6.56;80.29
77052;SHT30;65980;44.898;8.602;2023-03-21T04:49:56;6.65;79.38
77052;SHT30;65980;44.898;8.602;2023-03-21T04:53:02;6.48;80.03
77052;SHT30;65980;44.898;8.602;2023-03-21T04:56:06;6.61;79.11
77052;SHT30;65980;44.898;8.602;2023-03-21T04:59:12;6.59;79.33
77052;SHT30;65980;44.898;8.602;2023-03-21T05:02:16;6.48;79.38
77052;SHT30;65980;44.898;8.602;2023-03-21T05:05:20;6.30;80.23
77052;SHT30;65980;44.898;8.602;2023-03-21T05:08:25;6.31;79.53
77052;SHT30;65980;44.898;8.602;2023-03-21T05:11:29;6.38;79.54
77052;SHT30;65980;44.898;8.602;2023-03-21T05:14:34;6.23;79.49
77052;SHT30;65980;44.898;8.602;2023-03-21T05:17:39;6.09;81.04
77052;SHT30;65980;44.898;8.602;2023-03-21T05:20:45;5.96;82.80
77052;SHT30;65980;44.898;8.602;2023-03-21T05:23:56;6.24;81.36
77052;SHT30;65980;44.898;8.602;2023-03-21T05:27:02;6.20;81.74
77052;SHT30;65980;44.898;8.602;2023-03-21T05:30:10;6.28;81.01
77052;SHT30;65980;44.898;8.602;2023-03-21T05:33:15;6.30;80.25
77052;SHT30;65980;44.898;8.602;2023-03-21T05:36:19;6.02;82.22
77052;SHT30;65980;44.898;8.602;2023-03-21T05:39:24;5.94;82.69
77052;SHT30;65980;44.898;8.602;2023-03-21T05:42:42;5.97;82.73
77052;SHT30;65980;44.898;8.602;2023-03-21T05:46:00;6.11;81.62
77052;SHT30;65980;44.898;8.602;2023-03-21T05:49:08;6.48;80.19
77052;SHT30;65980;44.898;8.602;2023-03-21T05:52:13;6.32;81.05
77052;SHT30;65980;44.898;8.602;2023-03-21T05:55:17;6.32;81.65
77052;SHT30;65980;44.898;8.602;2023-03-21T05:58:22;6.46;80.68
77052;SHT30;65980;44.898;8.602;2023-03-21T06:01:31;6.20;81.38
77052;SHT30;65980;44.898;8.602;2023-03-21T06:04:44;6.18;82.04
77052;SHT30;65980;44.898;8.602;2023-03-21T06:07:49;6.09;83.14
77052;SHT30;65980;44.898;8.602;2023-03-21T06:10:55;5.92;83.35
77052;SHT30;65980;44.898;8.602;2023-03-21T06:14:01;6.32;82.05
77052;SHT30;65980;44.898;8.602;2023-03-21T06:17:06;6.45;81.86
77052;SHT30;65980;44.898;8.602;2023-03-21T06:20:15;6.45;81.07
77052;SHT30;65980;44.898;8.602;2023-03-21T06:23:25;6.27;83.02
77052;SHT30;65980;44.898;8.602;2023-03-21T06:26:31;5.79;83.93
77052;SHT30;65980;44.898;8.602;2023-03-21T06:29:35;5.86;83.98
77052;SHT30;65980;44.898;8.602;2023-03-21T06:32:39;5.80;83.60
77052;SHT30;65980;44.898;8.602;2023-03-21T06:35:55;6.18;82.63
77052;SHT30;65980;44.898;8.602;2023-03-21T06:39:00;6.64;80.78
77052;SHT30;65980;44.898;8.602;2023-03-21T06:42:05;6.89;79.94
77052;SHT30;65980;44.898;8.602;2023-03-21T06:45:11;7.10;79.53
77052;SHT30;65980;44.898;8.602;2023-03-21T06:48:18;7.51;78.48
77052;SHT30;65980;44.898;8.602;2023-03-21T06:51:27;7.83;77.74
77052;SHT30;65980;44.898;8.602;2023-03-21T06:55:13;8.34;75.30
77052;SHT30;65980;44.898;8.602;2023-03-21T06:58:18;8.56;74.59
77052;SHT30;65980;44.898;8.602;2023-03-21T07:01:24;8.42;75.00
77052;SHT30;65980;44.898;8.602;2023-03-21T07:04:38;7.82;77.39
77052;SHT30;65980;44.898;8.602;2023-03-21T07:07:48;7.68;77.69
77052;SHT30;65980;44.898;8.602;2023-03-21T07:10:54;7.73;77.95
77052;SHT30;65980;44.898;8.602;2023-03-21T07:18:18;8.03;78.13
77052;SHT30;65980;44.898;8.602;2023-03-21T07:21:23;8.30;77.01
77052;SHT30;65980;44.898;8.602;2023-03-21T07:24:29;8.24;77.16
77052;SHT30;65980;44.898;8.602;2023-03-21T07:27:33;8.14;78.03
77052;SHT30;65980;44.898;8.602;2023-03-21T07:30:37;8.24;78.15
77052;SHT30;65980;44.898;8.602;2023-03-21T07:33:42;8.59;76.89
77052;SHT30;65980;44.898;8.602;2023-03-21T07:36:47;8.70;76.73
77052;SHT30;65980;44.898;8.602;2023-03-21T07:39:51;8.65;77.48
77052;SHT30;65980;44.898;8.602;2023-03-21T07:42:58;8.69;77.47
77052;SHT30;65980;44.898;8.602;2023-03-21T07:46:08;8.96;77.16
77052;SHT30;65980;44.898;8.602;2023-03-21T07:49:15;9.18;76.59
77052;SHT30;65980;44.898;8.602;2023-03-21T07:52:18;9.45;75.70
77052;SHT30;65980;44.898;8.602;2023-03-21T07:55:29;9.42;76.28
77052;SHT30;65980;44.898;8.602;2023-03-21T07:58:35;9.60;77.05
77052;SHT30;65980;44.898;8.602;2023-03-21T08:01:38;9.80;75.83
77052;SHT30;65980;44.898;8.602;2023-03-21T08:04:43;10.12;75.22
77052;SHT30;65980;44.898;8.602;2023-03-21T08:08:43;10.31;74.49
77052;SHT30;65980;44.898;8.602;2023-03-21T08:11:47;10.18;73.76
77052;SHT30;65980;44.898;8.602;2023-03-21T08:14:51;10.08;74.12
77052;SHT30;65980;44.898;8.602;2023-03-21T08:17:55;10.32;72.85
77052;SHT30;65980;44.898;8.602;2023-03-21T08:21:01;10.45;73.67
77052;SHT30;65980;44.898;8.602;2023-03-21T08:24:05;10.49;73.18
77052;SHT30;65980;44.898;8.602;2023-03-21T08:27:10;10.67;73.01
77052;SHT30;65980;44.898;8.602;2023-03-21T08:30:19;10.81;73.66
77052;SHT30;65980;44.898;8.602;2023-03-21T08:33:24;10.90;72.97
77052;SHT30;65980;44.898;8.602;2023-03-21T08:36:28;10.93;73.19
77052;SHT30;65980;44.898;8.602;2023-03-21T08:39:33;10.99;73.10
77052;SHT30;65980;44.898;8.602;2023-03-21T08:42:38;11.27;72.63
77052;SHT30;65980;44.898;8.602;2023-03-21T08:45:43;11.48;70.60
77052;SHT30;65980;44.898;8.602;2023-03-21T08:48:47;11.91;69.45
77052;SHT30;65980;44.898;8.602;2023-03-21T08:51:54;12.07;69.00
77052;SHT30;65980;44.898;8.602;2023-03-21T08:54:58;12.48;68.77
77052;SHT30;65980;44.898;8.602;2023-03-21T08:58:05;12.90;67.61
77052;SHT30;65980;44.898;8.602;2023-03-21T09:01:09;12.67;67.26
77052;SHT30;65980;44.898;8.602;2023-03-21T09:04:17;12.90;68.20
77052;SHT30;65980;44.898;8.602;2023-03-21T09:07:23;13.54;65.71
77052;SHT30;65980;44.898;8.602;2023-03-21T09:10:29;13.99;64.10
77052;SHT30;65980;44.898;8.602;2023-03-21T09:13:33;13.86;64.75
77052;SHT30;65980;44.898;8.602;2023-03-21T09:16:36;13.72;65.92
77052;SHT30;65980;44.898;8.602;2023-03-21T09:19:40;13.99;64.78
77052;SHT30;65980;44.898;8.602;2023-03-21T09:22:48;13.94;65.51
77052;SHT30;65980;44.898;8.602;2023-03-21T09:25:53;14.71;63.41
77052;SHT30;65980;44.898;8.602;2023-03-21T09:28:57;15.58;60.13
77052;SHT30;65980;44.898;8.602;2023-03-21T09:32:04;15.72;60.98
77052;SHT30;65980;44.898;8.602;2023-03-21T09:35:11;15.52;60.81
77052;SHT30;65980;44.898;8.602;2023-03-21T09:38:15;15.65;61.57
77052;SHT30;65980;44.898;8.602;2023-03-21T09:47:28;16.04;60.35
77052;SHT30;65980;44.898;8.602;2023-03-21T09:50:36;16.08;60.21
77052;SHT30;65980;44.898;8.602;2023-03-21T09:53:49;16.84;58.42
77052;SHT30;65980;44.898;8.602;2023-03-21T09:56:56;16.31;59.56
77052;SHT30;65980;44.898;8.602;2023-03-21T10:00:16;16.03;60.12
77052;SHT30;65980;44.898;8.602;2023-03-21T10:03:28;16.68;59.02
77052;SHT30;65980;44.898;8.602;2023-03-21T10:10:43;17.94;55.53
77052;SHT30;65980;44.898;8.602;2023-03-21T10:14:00;18.99;52.89
77052;SHT30;65980;44.898;8.602;2023-03-21T10:17:34;17.35;57.32
77052;SHT30;65980;44.898;8.602;2023-03-21T10:21:20;17.51;57.55
77052;SHT30;65980;44.898;8.602;2023-03-21T10:24:25;17.24;57.01
77052;SHT30;65980;44.898;8.602;2023-03-21T10:27:31;17.16;57.57
77052;SHT30;65980;44.898;8.602;2023-03-21T10:30:45;17.89;55.11
77052;SHT30;65980;44.898;8.602;2023-03-21T10:33:58;17.08;58.29
77052;SHT30;65980;44.898;8.602;2023-03-21T10:37:17;17.13;58.15
77052;SHT30;65980;44.898;8.602;2023-03-21T10:40:25;17.75;57.46
77052;SHT30;65980;44.898;8.602;2023-03-21T10:43:42;17.35;58.01
77052;SHT30;65980;44.898;8.602;2023-03-21T10:46:53;17.52;56.56
77052;SHT30;65980;44.898;8.602;2023-03-21T10:50:05;17.87;57.02
77052;SHT30;65980;44.898;8.602;2023-03-21T10:53:28;18.62;54.11
77052;SHT30;65980;44.898;8.602;2023-03-21T11:01:45;19.36;51.46
77052;SHT30;65980;44.898;8.602;2023-03-21T11:04:53;18.72;52.18
77052;SHT30;65980;44.898;8.602;2023-03-21T11:08:23;18.79;52.70
77052;SHT30;65980;44.898;8.602;2023-03-21T11:11:38;18.89;51.88
77052;SHT30;65980;44.898;8.602;2023-03-21T11:14:44;19.55;50.61
77052;SHT30;65980;44.898;8.602;2023-03-21T11:17:48;19.73;48.86
77052;SHT30;65980;44.898;8.602;2023-03-21T11:21:12;19.38;49.65
77052;SHT30;65980;44.898;8.602;2023-03-21T11:24:20;19.78;48.70
77052;SHT30;65980;44.898;8.602;2023-03-21T11:27:25;19.14;51.15
77052;SHT30;65980;44.898;8.602;2023-03-21T11:30:33;20.01;48.47
77052;SHT30;65980;44.898;8.602;2023-03-21T11:33:40;20.52;48.38
77052;SHT30;65980;44.898;8.602;2023-03-21T11:36:47;19.75;49.16
77052;SHT30;65980;44.898;8.602;2023-03-21T11:46:23;20.96;46.53
77052;SHT30;65980;44.898;8.602;2023-03-21T11:49:27;20.99;46.90
77052;SHT30;65980;44.898;8.602;2023-03-21T11:52:37;19.30;50.83
77052;SHT30;65980;44.898;8.602;2023-03-21T12:05:59;19.73;47.94
77052;SHT30;65980;44.898;8.602;2023-03-21T12:15:26;20.13;46.57
77052;SHT30;65980;44.898;8.602;2023-03-21T12:40:59;20.07;47.98
77052;SHT30;65980;44.898;8.602;2023-03-21T12:44:16;19.28;51.29
77052;SHT30;65980;44.898;8.602;2023-03-21T12:47:22;20.00;49.32
77052;SHT30;65980;44.898;8.602;2023-03-21T12:50:28;19.24;50.20
77052;SHT30;65980;44.898;8.602;2023-03-21T12:53:43;19.82;47.79
77052;SHT30;65980;44.898;8.602;2023-03-21T12:56:51;19.83;48.57
77052;SHT30;65980;44.898;8.602;2023-03-21T12:59:59;19.80;48.57
77052;SHT30;65980;44.898;8.602;2023-03-21T13:03:15;19.75;47.68
77052;SHT30;65980;44.898;8.602;2023-03-21T13:06:21;19.79;50.63
77052;SHT30;65980;44.898;8.602;2023-03-21T13:09:39;19.96;49.44
77052;SHT30;65980;44.898;8.602;2023-03-21T13:25:28;20.28;49.98
77052;SHT30;65980;44.898;8.602;2023-03-21T13:28:35;19.41;52.23
77052;SHT30;65980;44.898;8.602;2023-03-21T13:31:46;19.73;51.87
77052;SHT30;65980;44.898;8.602;2023-03-21T13:34:57;20.44;49.77
77052;SHT30;65980;44.898;8.602;2023-03-21T13:38:04;20.03;51.33
77052;SHT30;65980;44.898;8.602;2023-03-21T13:41:13;19.65;52.10
77052;SHT30;65980;44.898;8.602;2023-03-21T13:47:39;19.80;52.09
77052;SHT30;65980;44.898;8.602;2023-03-21T13:50:51;20.20;50.60
77052;SHT30;65980;44.898;8.602;2023-03-21T14:00:37;20.68;49.62
77052;SHT30;65980;44.898;8.602;2023-03-21T14:03:43;20.42;50.99
77052;SHT30;65980;44.898;8.602;2023-03-21T14:06:53;19.80;50.65
77052;SHT30;65980;44.898;8.602;2023-03-21T14:10:03;19.83;51.83
77052;SHT30;65980;44.898;8.602;2023-03-21T14:13:08;19.94;50.90
77052;SHT30;65980;44.898;8.602;2023-03-21T14:16:18;19.87;51.87
77052;SHT30;65980;44.898;8.602;2023-03-21T14:19:30;19.83;52.34
77052;SHT30;65980;44.898;8.602;2023-03-21T14:22:34;19.80;51.91
77052;SHT30;65980;44.898;8.602;2023-03-21T14:25:38;20.38;50.12
77052;SHT30;65980;44.898;8.602;2023-03-21T14:28:47;20.64;49.33
77052;SHT30;65980;44.898;8.602;2023-03-21T14:31:53;20.78;49.45
77052;SHT30;65980;44.898;8.602;2023-03-21T14:34:59;20.69;49.71
77052;SHT30;65980;44.898;8.602;2023-03-21T14:38:07;20.58;50.12
77052;SHT30;65980;44.898;8.602;2023-03-21T14:41:25;20.65;49.42
77052;SHT30;65980;44.898;8.602;2023-03-21T14:47:41;20.61;49.88
77052;SHT30;65980;44.898;8.602;2023-03-21T14:50:56;20.53;49.70
77052;SHT30;65980;44.898;8.602;2023-03-21T14:54:04;20.64;49.61
77052;SHT30;65980;44.898;8.602;2023-03-21T14:57:12;20.42;48.13
77052;SHT30;65980;44.898;8.602;2023-03-21T15:00:24;20.34;48.35
77052;SHT30;65980;44.898;8.602;2023-03-21T15:03:29;20.42;48.11
77052;SHT30;65980;44.898;8.602;2023-03-21T15:06:47;20.21;48.87
77052;SHT30;65980;44.898;8.602;2023-03-21T15:09:52;20.28;49.60
77052;SHT30;65980;44.898;8.602;2023-03-21T15:13:01;20.25;49.45
77052;SHT30;65980;44.898;8.602;2023-03-21T15:16:15;19.78;50.53
77052;SHT30;65980;44.898;8.602;2023-03-21T15:19:31;19.96;49.58
77052;SHT30;65980;44.898;8.602;2023-03-21T15:22:38;19.63;51.01
77052;SHT30;65980;44.898;8.602;2023-03-21T15:25:43;19.52;50.17
77052;SHT30;65980;44.898;8.602;2023-03-21T15:28:49;19.54;50.27
77052;SHT30;65980;44.898;8.602;2023-03-21T15:31:54;19.73;50.37
77052;SHT30;65980;44.898;8.602;2023-03-21T15:35:07;19.76;49.92
77052;SHT30;65980;44.898;8.602;2023-03-21T15:38:33;19.70;50.83
77052;SHT30;65980;44.898;8.602;2023-03-21T15:45:17;19.41;51.68
77052;SHT30;65980;44.898;8.602;2023-03-21T15:48:24;19.38;51.34
77052;SHT30;65980;44.898;8.602;2023-03-21T15:51:29;19.44;51.35
77052;SHT30;65980;44.898;8.602;2023-03-21T15:54:45;19.41;49.94
77052;SHT30;65980;44.898;8.602;2023-03-21T15:57:51;19.24;50.64
77052;SHT30;65980;44.898;8.602;2023-03-21T16:00:56;19.25;50.20
77052;SHT30;65980;44.898;8.602;2023-03-21T16:04:08;18.97;51.18
77052;SHT30;65980;44.898;8.602;2023-03-21T16:07:13;18.72;51.24
77052;SHT30;65980;44.898;8.602;2023-03-21T16:13:31;19.03;49.99
77052;SHT30;65980;44.898;8.602;2023-03-21T16:16:35;19.00;50.46
77052;SHT30;65980;44.898;8.602;2023-03-21T16:19:40;19.17;49.15
77052;SHT30;65980;44.898;8.602;2023-03-21T16:22:47;19.21;49.45
77052;SHT30;65980;44.898;8.602;2023-03-21T16:25:52;19.08;50.51
77052;SHT30;65980;44.898;8.602;2023-03-21T16:29:02;19.06;50.54
77052;SHT30;65980;44.898;8.602;2023-03-21T16:32:14;18.97;51.19
77052;SHT30;65980;44.898;8.602;2023-03-21T16:35:19;18.80;51.98
77052;SHT30;65980;44.898;8.602;2023-03-21T16:38:25;18.85;52.41
77052;SHT30;65980;44.898;8.602;2023-03-21T16:41:32;18.68;52.92
77052;SHT30;65980;44.898;8.602;2023-03-21T16:44:37;18.87;52.70
77052;SHT30;65980;44.898;8.602;2023-03-21T16:47:42;18.44;53.70
77052;SHT30;65980;44.898;8.602;2023-03-21T16:50:47;18.18;54.69
77052;SHT30;65980;44.898;8.602;2023-03-21T16:53:51;18.49;53.96
77052;SHT30;65980;44.898;8.602;2023-03-21T16:56:56;18.53;53.61
77052;SHT30;65980;44.898;8.602;2023-03-21T17:00:02;18.30;54.10
77052;SHT30;65980;44.898;8.602;2023-03-21T17:03:14;18.35;53.95
77052;SHT30;65980;44.898;8.602;2023-03-21T17:06:21;18.40;53.64
77052;SHT30;65980;44.898;8.602;2023-03-21T17:09:26;18.38;53.57
77052;SHT30;65980;44.898;8.602;2023-03-21T17:12:30;18.21;54.30
77052;SHT30;65980;44.898;8.602;2023-03-21T17:15:35;18.28;54.11
77052;SHT30;65980;44.898;8.602;2023-03-21T17:18:39;18.24;53.16
77052;SHT30;65980;44.898;8.602;2023-03-21T17:21:44;17.85;53.98
77052;SHT30;65980;44.898;8.602;2023-03-21T17:24:49;17.99;53.70
77052;SHT30;65980;44.898;8.602;2023-03-21T17:27:53;17.86;54.12
77052;SHT30;65980;44.898;8.602;2023-03-21T17:30:57;17.41;55.75
77052;SHT30;65980;44.898;8.602;2023-03-21T17:34:01;17.63;54.87
77052;SHT30;65980;44.898;8.602;2023-03-21T17:37:07;17.49;55.50
77052;SHT30;65980;44.898;8.602;2023-03-21T17:40:12;17.63;54.54
77052;SHT30;65980;44.898;8.602;2023-03-21T17:43:17;17.65;54.64
77052;SHT30;65980;44.898;8.602;2023-03-21T17:46:22;17.65;54.95
77052;SHT30;65980;44.898;8.602;2023-03-21T17:49:26;17.62;54.84
77052;SHT30;65980;44.898;8.602;2023-03-21T17:52:31;17.52;55.15
77052;SHT30;65980;44.898;8.602;2023-03-21T17:55:35;17.31;55.40
77052;SHT30;65980;44.898;8.602;2023-03-21T17:58:39;17.30;55.56
77052;SHT30;65980;44.898;8.602;2023-03-21T18:01:44;17.28;55.47
77052;SHT30;65980;44.898;8.602;2023-03-21T18:04:49;17.25;55.37
77052;SHT30;65980;44.898;8.602;2023-03-21T18:07:53;17.24;55.46
77052;SHT30;65980;44.898;8.602;2023-03-21T18:10:58;17.17;55.41
77052;SHT30;65980;44.898;8.602;2023-03-21T18:14:04;17.17;55.19
77052;SHT30;65980;44.898;8.602;2023-03-21T18:17:08;17.20;55.46
77052;SHT30;65980;44.898;8.602;2023-03-21T18:20:15;17.13;55.61
77052;SHT30;65980;44.898;8.602;2023-03-21T18:23:21;17.16;55.36
77052;SHT30;65980;44.898;8.602;2023-03-21T18:26:25;16.97;55.70
77052;SHT30;65980;44.898;8.602;2023-03-21T18:29:29;16.93;55.73
77052;SHT30;65980;44.898;8.602;2023-03-21T18:32:34;16.83;56.81
77052;SHT30;65980;44.898;8.602;2023-03-21T18:35:39;16.83;56.05
77052;SHT30;65980;44.898;8.602;2023-03-21T18:38:43;16.75;57.61
77052;SHT30;65980;44.898;8.602;2023-03-21T18:41:47;16.32;58.95
77052;SHT30;65980;44.898;8.602;2023-03-21T18:44:51;16.25;59.03
77052;SHT30;65980;44.898;8.602;2023-03-21T18:47:56;16.28;59.21
77052;SHT30;65980;44.898;8.602;2023-03-21T18:51:00;16.04;59.80
77052;SHT30;65980;44.898;8.602;2023-03-21T18:54:05;15.99;60.04
77052;SHT30;65980;44.898;8.602;2023-03-21T18:57:10;15.93;60.83
77052;SHT30;65980;44.898;8.602;2023-03-21T19:00:14;15.99;60.74
77052;SHT30;65980;44.898;8.602;2023-03-21T19:03:20;16.07;60.65
77052;SHT30;65980;44.898;8.602;2023-03-21T19:06:25;16.08;61.19
77052;SHT30;65980;44.898;8.602;2023-03-21T19:09:29;16.10;60.84
77052;SHT30;65980;44.898;8.602;2023-03-21T19:12:33;16.13;60.78
77052;SHT30;65980;44.898;8.602;2023-03-21T19:15:37;16.06;61.73
77052;SHT30;65980;44.898;8.602;2023-03-21T19:18:42;16.06;61.25
77052;SHT30;65980;44.898;8.602;2023-03-21T19:21:46;16.10;61.04
77052;SHT30;65980;44.898;8.602;2023-03-21T19:24:50;15.97;61.73
77052;SHT30;65980;44.898;8.602;2023-03-21T19:27:56;15.99;61.91
77052;SHT30;65980;44.898;8.602;2023-03-21T19:31:07;16.00;61.97
77052;SHT30;65980;44.898;8.602;2023-03-21T19:34:12;15.73;63.10
77052;SHT30;65980;44.898;8.602;2023-03-21T19:37:20;15.74;62.74
77052;SHT30;65980;44.898;8.602;2023-03-21T19:40:25;15.80;62.63
77052;SHT30;65980;44.898;8.602;2023-03-21T19:43:29;15.83;62.31
77052;SHT30;65980;44.898;8.602;2023-03-21T19:46:33;15.63;62.98
77052;SHT30;65980;44.898;8.602;2023-03-21T19:49:40;15.48;64.46
77052;SHT30;65980;44.898;8.602;2023-03-21T19:52:45;15.56;63.39
77052;SHT30;65980;44.898;8.602;2023-03-21T19:55:50;15.52;63.30
77052;SHT30;65980;44.898;8.602;2023-03-21T19:58:55;15.12;63.68
77052;SHT30;65980;44.898;8.602;2023-03-21T20:01:59;15.11;63.40
77052;SHT30;65980;44.898;8.602;2023-03-21T20:05:05;15.23;61.72
77052;SHT30;65980;44.898;8.602;2023-03-21T20:08:10;15.25;61.28
77052;SHT30;65980;44.898;8.602;2023-03-21T20:11:16;15.31;60.98
77052;SHT30;65980;44.898;8.602;2023-03-21T20:14:21;15.30;60.92
77052;SHT30;65980;44.898;8.602;2023-03-21T20:17:25;15.36;59.86
77052;SHT30;65980;44.898;8.602;2023-03-21T20:20:29;15.27;60.11
77052;SHT30;65980;44.898;8.602;2023-03-21T20:23:33;15.21;60.19
77052;SHT30;65980;44.898;8.602;2023-03-21T20:26:38;15.14;60.76
77052;SHT30;65980;44.898;8.602;2023-03-21T20:29:43;14.99;61.42
77052;SHT30;65980;44.898;8.602;2023-03-21T20:32:47;14.96;61.89
77052;SHT30;65980;44.898;8.602;2023-03-21T20:35:56;14.93;62.39
77052;SHT30;65980;44.898;8.602;2023-03-21T20:39:02;14.82;63.03
77052;SHT30;65980;44.898;8.602;2023-03-21T20:42:07;14.65;63.69
77052;SHT30;65980;44.898;8.602;2023-03-21T20:45:12;14.35;65.35
77052;SHT30;65980;44.898;8.602;2023-03-21T20:48:17;13.96;67.05
77052;SHT30;65980;44.898;8.602;2023-03-21T20:51:21;13.28;69.96
77052;SHT30;65980;44.898;8.602;2023-03-21T20:54:25;13.45;69.43
77052;SHT30;65980;44.898;8.602;2023-03-21T20:57:28;13.48;69.59
77052;SHT30;65980;44.898;8.602;2023-03-21T21:00:32;13.55;68.71
77052;SHT30;65980;44.898;8.602;2023-03-21T21:03:37;13.56;68.76
77052;SHT30;65980;44.898;8.602;2023-03-21T21:06:42;13.58;68.38
77052;SHT30;65980;44.898;8.602;2023-03-21T21:09:47;13.42;68.66
77052;SHT30;65980;44.898;8.602;2023-03-21T21:12:52;13.31;69.11
77052;SHT30;65980;44.898;8.602;2023-03-21T21:15:55;13.46;68.43
77052;SHT30;65980;44.898;8.602;2023-03-21T21:19:00;13.51;68.21
77052;SHT30;65980;44.898;8.602;2023-03-21T21:22:03;13.39;68.58
77052;SHT30;65980;44.898;8.602;2023-03-21T21:25:08;13.20;69.67
77052;SHT30;65980;44.898;8.602;2023-03-21T21:28:28;13.04;69.78
77052;SHT30;65980;44.898;8.602;2023-03-21T21:31:35;12.99;69.72
77052;SHT30;65980;44.898;8.602;2023-03-21T21:34:40;12.79;70.96
77052;SHT30;65980;44.898;8.602;2023-03-21T21:37:44;12.87;70.32
77052;SHT30;65980;44.898;8.602;2023-03-21T21:40:50;12.96;70.01
77052;SHT30;65980;44.898;8.602;2023-03-21T21:43:54;13.03;70.16
77052;SHT30;65980;44.898;8.602;2023-03-21T21:46:59;12.84;70.29
77052;SHT30;65980;44.898;8.602;2023-03-21T21:50:03;12.86;69.78
77052;SHT30;65980;44.898;8.602;2023-03-21T21:53:09;13.01;69.73
77052;SHT30;65980;44.898;8.602;2023-03-21T21:56:13;12.86;69.92
77052;SHT30;65980;44.898;8.602;2023-03-21T21:59:18;13.03;69.72